Time;durP1;ratioP1;P1;durP2;ratioP2;P2;SDS_P1;SDS_P2;PMS_P1;PMS_P2;Temp;Humidity;BMP_temperature;BMP_pressure;BME280_temperature;BME280_humidity;BME280_pressure;Samples;Min_cycle;Max_cycle;Signal;HPM_P1;HPM_P2
2024/03/14 00:00:08;;;;;;;11.05;6.10;;;;;;;;;;5093017;27;20482;-72
2024/03/14 00:02:35;;;;;;;9.38;6.38;;;;;;;;;;5093380;27;20034;-71
2024/03/14 00:05:01;;;;;;;8.70;5.50;;;;;;;;;;5084497;28;20485;-72
2024/03/14 00:07:27;;;;;;;9.82;5.80;;;;;;;;;;5098995;28;20024;-71
2024/03/14 00:09:53;;;;;;;10.60;6.50;;;;;;;;;;5096188;28;20095;-72
2024/03/14 00:12:23;;;;;;;7.35;5.15;;;;;;;;;;5085339;28;20047;-72
2024/03/14 00:14:52;;;;;;;10.85;5.95;;;;;;;;;;5083965;28;20062;-71
2024/03/14 00:17:21;;;;;;;9.73;6.55;;;;;;;;;;5100098;28;20092;-72
2024/03/14 00:19:47;;;;;;;8.48;5.95;;;;;;;;;;5094876;28;20019;-72
2024/03/14 00:22:21;;;;;;;9.15;5.65;;;;;;;;;;5094773;28;20036;-72
2024/03/14 00:24:47;;;;;;;9.48;4.78;;;;;;;;;;5094539;28;20044;-72
2024/03/14 00:27:14;;;;;;;6.63;4.38;;;;;;;;;;5080109;28;20051;-73
2024/03/14 00:29:41;;;;;;;6.90;4.53;;;;;;;;;;5092651;27;20016;-72
2024/03/14 00:32:08;;;;;;;8.65;4.25;;;;;;;;;;5087595;28;20020;-72
2024/03/14 00:34:36;;;;;;;6.65;4.03;;;;;;;;;;5098283;28;20032;-72
2024/03/14 00:37:02;;;;;;;4.03;3.65;;;;;;;;;;5099045;28;20065;-71
2024/03/14 00:39:29;;;;;;;5.78;4.07;;;;;;;;;;5094087;28;20031;-71
2024/03/14 00:41:55;;;;;;;6.05;3.55;;;;;;;;;;5089448;28;20039;-70
2024/03/14 00:44:22;;;;;;;3.22;2.90;;;;;;;;;;5076380;28;20119;-69
2024/03/14 00:46:48;;;;;;;5.05;3.20;;;;;;;;;;5093521;27;20040;-69
2024/03/14 00:49:14;;;;;;;5.13;3.80;;;;;;;;;;5099751;27;20049;-69
2024/03/14 00:51:44;;;;;;;5.63;3.85;;;;;;;;;;5085358;28;20034;-69
2024/03/14 00:54:10;;;;;;;4.65;3.85;;;;;;;;;;5097865;27;20059;-70
2024/03/14 00:56:36;;;;;;;5.50;3.88;;;;;;;;;;5092661;28;20715;-70
2024/03/14 00:59:07;;;;;;;5.47;4.07;;;;;;;;;;5104722;28;20130;-70
2024/03/14 01:01:33;;;;;;;7.30;4.32;;;;;;;;;;5096038;28;20028;-73
2024/03/14 01:03:59;;;;;;;3.53;2.75;;;;;;;;;;5095905;28;20063;-70
2024/03/14 01:06:26;;;;;;;4.93;3.20;;;;;;;;;;5100415;28;20024;-70
2024/03/14 01:08:53;;;;;;;5.15;3.78;;;;;;;;;;5093720;28;20039;-72
2024/03/14 01:11:23;;;;;;;5.93;3.95;;;;;;;;;;5079611;28;20020;-71
2024/03/14 01:13:49;;;;;;;3.88;3.35;;;;;;;;;;5078684;28;20032;-71
2024/03/14 01:16:15;;;;;;;5.32;3.60;;;;;;;;;;5096584;28;20031;-70
2024/03/14 01:18:42;;;;;;;4.80;3.65;;;;;;;;;;5075142;28;20024;-69
2024/03/14 01:21:09;;;;;;;5.47;3.67;;;;;;;;;;5094659;28;20024;-69
2024/03/14 01:23:37;;;;;;;8.38;5.03;;;;;;;;;;5072753;28;20060;-69
2024/03/14 01:26:03;;;;;;;4.88;3.53;;;;;;;;;;5098228;28;20111;-69
2024/03/14 01:28:30;;;;;;;6.63;4.15;;;;;;;;;;5089996;28;20055;-69
2024/03/14 01:30:59;;;;;;;5.30;3.80;;;;;;;;;;5075015;28;20028;-65
2024/03/14 01:33:25;;;;;;;5.10;4.05;;;;;;;;;;5089333;28;20035;-65
2024/03/14 01:35:58;;;;;;;5.25;3.83;;;;;;;;;;5091741;28;20481;-66
2024/03/14 01:38:25;;;;;;;5.53;3.13;;;;;;;;;;5075957;28;20066;-65
2024/03/14 01:40:53;;;;;;;4.32;2.83;;;;;;;;;;5074911;28;20025;-66
2024/03/14 01:43:19;;;;;;;3.60;2.90;;;;;;;;;;5081635;28;21151;-66
2024/03/14 01:45:48;;;;;;;4.78;3.67;;;;;;;;;;5101306;28;20122;-67
2024/03/14 01:48:14;;;;;;;3.78;3.38;;;;;;;;;;5096835;28;20024;-67
2024/03/14 01:50:41;;;;;;;4.20;3.13;;;;;;;;;;5055799;28;20032;-69
2024/03/14 01:53:07;;;;;;;8.25;3.40;;;;;;;;;;5096607;28;20016;-69
2024/03/14 01:55:35;;;;;;;4.40;3.05;;;;;;;;;;5076123;28;20181;-69
2024/03/14 01:58:02;;;;;;;4.97;3.65;;;;;;;;;;5093271;28;20042;-69
2024/03/14 02:00:33;;;;;;;6.38;3.15;;;;;;;;;;5096561;28;20032;-69
2024/03/14 02:03:00;;;;;;;3.10;2.80;;;;;;;;;;5078400;28;20063;-69
2024/03/14 02:05:36;;;;;;;3.78;2.85;;;;;;;;;;5085636;28;20040;-69
2024/03/14 02:08:04;;;;;;;5.95;3.67;;;;;;;;;;5095937;28;20020;-69
2024/03/14 02:10:30;;;;;;;4.63;3.40;;;;;;;;;;5087722;28;20048;-69
2024/03/14 02:12:57;;;;;;;4.55;3.25;;;;;;;;;;5072362;28;20111;-69
2024/03/14 02:15:26;;;;;;;7.30;4.47;;;;;;;;;;5081560;28;20028;-69
2024/03/14 02:17:52;;;;;;;3.17;2.25;;;;;;;;;;5094879;28;20031;-69
2024/03/14 02:20:18;;;;;;;4.55;3.35;;;;;;;;;;5097701;28;20066;-69
2024/03/14 02:22:46;;;;;;;3.60;2.92;;;;;;;;;;5087707;28;20034;-69
2024/03/14 02:25:19;;;;;;;6.25;3.78;;;;;;;;;;5074525;28;20039;-69
2024/03/14 02:27:46;;;;;;;7.03;4.07;;;;;;;;;;5083679;28;20046;-68
2024/03/14 02:30:12;;;;;;;5.95;3.20;;;;;;;;;;5100584;28;20027;-67
2024/03/14 02:32:39;;;;;;;5.70;3.88;;;;;;;;;;5101137;28;20032;-71
2024/03/14 02:35:05;;;;;;;6.25;3.95;;;;;;;;;;5099548;27;20036;-69
2024/03/14 02:37:32;;;;;;;7.15;3.15;;;;;;;;;;5083171;28;20111;-67
2024/03/14 02:39:58;;;;;;;4.80;3.05;;;;;;;;;;5101310;27;20054;-70
2024/03/14 02:42:24;;;;;;;5.25;3.63;;;;;;;;;;5103746;28;20069;-67
2024/03/14 02:44:51;;;;;;;4.35;3.40;;;;;;;;;;5097532;28;20042;-67
2024/03/14 02:47:17;;;;;;;4.88;2.95;;;;;;;;;;5097431;28;20110;-66
2024/03/14 02:49:43;;;;;;;4.28;3.35;;;;;;;;;;5096191;28;20075;-67
2024/03/14 02:52:10;;;;;;;6.30;3.67;;;;;;;;;;5103319;28;20050;-67
2024/03/14 02:54:37;;;;;;;5.15;3.13;;;;;;;;;;5098505;28;20028;-67
2024/03/14 02:57:03;;;;;;;5.75;3.38;;;;;;;;;;5088839;28;20024;-66
2024/03/14 02:59:30;;;;;;;4.20;3.25;;;;;;;;;;5096621;27;20032;-64
2024/03/14 03:01:58;;;;;;;5.63;2.83;;;;;;;;;;5094687;28;20464;-66
2024/03/14 03:04:24;;;;;;;1.60;1.50;;;;;;;;;;5092743;28;20028;-66
2024/03/14 03:06:55;;;;;;;1.15;1.15;;;;;;;;;;5091658;28;20034;-65
2024/03/14 03:09:21;;;;;;;1.30;1.30;;;;;;;;;;5079685;28;20032;-64
2024/03/14 03:11:48;;;;;;;1.50;1.38;;;;;;;;;;5095045;28;20023;-66
2024/03/14 03:14:14;;;;;;;0.98;0.98;;;;;;;;;;5099736;28;20034;-65
2024/03/14 03:16:40;;;;;;;1.52;1.42;;;;;;;;;;5102970;28;20049;-67
2024/03/14 03:19:09;;;;;;;1.10;1.10;;;;;;;;;;5099234;27;20454;-66
2024/03/14 03:21:37;;;;;;;1.50;1.40;;;;;;;;;;5098617;28;20499;-69
2024/03/14 03:24:12;;;;;;;1.17;1.17;;;;;;;;;;5096704;28;20040;-66
2024/03/14 03:26:40;;;;;;;1.10;1.10;;;;;;;;;;5101426;28;20643;-68
2024/03/14 03:29:07;;;;;;;1.20;1.20;;;;;;;;;;5098013;28;20031;-67
2024/03/14 03:31:34;;;;;;;1.30;1.20;;;;;;;;;;5099769;28;20024;-67
2024/03/14 03:34:01;;;;;;;1.00;1.00;;;;;;;;;;5101880;27;20308;-66
2024/03/14 03:36:29;;;;;;;1.08;1.08;;;;;;;;;;5101477;27;20019;-67
2024/03/14 03:38:56;;;;;;;1.10;1.10;;;;;;;;;;5083041;28;20035;-66
2024/03/14 03:41:23;;;;;;;0.90;0.90;;;;;;;;;;5077590;28;20035;-66
2024/03/14 03:43:52;;;;;;;1.10;1.10;;;;;;;;;;5080406;28;20020;-65
2024/03/14 03:46:19;;;;;;;0.93;0.93;;;;;;;;;;5078268;28;20020;-65
2024/03/14 03:48:48;;;;;;;1.98;1.08;;;;;;;;;;5099968;28;20020;-65
2024/03/14 03:51:14;;;;;;;1.00;1.00;;;;;;;;;;5101373;28;20020;-66
2024/03/14 03:53:40;;;;;;;1.10;1.10;;;;;;;;;;5089001;28;20032;-66
2024/03/14 03:56:07;;;;;;;1.10;1.10;;;;;;;;;;5087898;28;20026;-66
2024/03/14 03:58:33;;;;;;;0.90;0.90;;;;;;;;;;5101454;28;20016;-67
2024/03/14 04:01:19;;;;;;;1.90;1.15;;;;;;;;;;5092631;28;20561;-68
2024/03/14 04:03:46;;;;;;;1.05;1.05;;;;;;;;;;5096349;28;20019;-67
2024/03/14 04:06:15;;;;;;;1.10;1.10;;;;;;;;;;5102155;27;20027;-65
2024/03/14 04:08:42;;;;;;;0.90;0.90;;;;;;;;;;5093271;28;20107;-67
2024/03/14 04:11:08;;;;;;;1.33;1.27;;;;;;;;;;5095204;28;20047;-66
2024/03/14 04:13:34;;;;;;;1.30;1.27;;;;;;;;;;5092689;27;20034;-64
2024/03/14 04:16:03;;;;;;;1.15;1.15;;;;;;;;;;5081672;28;20489;-66
2024/03/14 04:18:30;;;;;;;1.30;1.30;;;;;;;;;;5098665;28;20040;-65
2024/03/14 04:20:56;;;;;;;1.02;1.02;;;;;;;;;;5096576;28;20030;-65
2024/03/14 04:23:24;;;;;;;1.13;1.13;;;;;;;;;;5093259;28;20043;-65
2024/03/14 04:25:53;;;;;;;1.90;1.20;;;;;;;;;;5100310;28;20040;-71
2024/03/14 04:28:23;;;;;;;1.20;1.20;;;;;;;;;;5104071;28;20016;-66
2024/03/14 04:30:49;;;;;;;1.23;1.13;;;;;;;;;;5106609;28;20028;-67
2024/03/14 04:33:15;;;;;;;1.23;1.23;;;;;;;;;;5093971;27;20374;-66
2024/03/14 04:35:41;;;;;;;1.40;1.30;;;;;;;;;;5093672;28;20082;-65
2024/03/14 04:38:08;;;;;;;2.55;1.20;;;;;;;;;;5093382;28;20405;-66
2024/03/14 04:40:34;;;;;;;1.23;1.23;;;;;;;;;;5095629;28;20058;-69
2024/03/14 04:43:01;;;;;;;1.27;1.27;;;;;;;;;;5080554;28;20028;-66
2024/03/14 04:45:28;;;;;;;1.10;1.10;;;;;;;;;;5080241;28;20078;-66
2024/03/14 04:47:54;;;;;;;1.42;1.33;;;;;;;;;;5095968;28;20022;-66
2024/03/14 04:50:21;;;;;;;2.38;1.38;;;;;;;;;;5095785;28;20476;-67
2024/03/14 04:52:48;;;;;;;1.10;1.10;;;;;;;;;;5082025;28;20032;-68
2024/03/14 04:55:15;;;;;;;2.00;1.48;;;;;;;;;;5095740;28;20034;-69
2024/03/14 04:57:43;;;;;;;1.50;1.45;;;;;;;;;;5090459;28;20034;-66
2024/03/14 05:02:49;;;;;;;1.15;1.15;;;;;;;;;;5089700;28;20364;-65
2024/03/14 05:05:15;;;;;;;1.13;1.13;;;;;;;;;;5084293;28;20074;-66
2024/03/14 05:07:42;;;;;;;1.42;1.33;;;;;;;;;;5093266;28;20047;-67
2024/03/14 05:10:09;;;;;;;2.30;1.33;;;;;;;;;;5088693;28;20028;-68
2024/03/14 05:12:35;;;;;;;1.35;1.00;;;;;;;;;;5092001;28;20505;-68
2024/03/14 05:15:05;;;;;;;1.30;1.30;;;;;;;;;;5097552;28;20035;-68
2024/03/14 05:17:32;;;;;;;2.08;1.55;;;;;;;;;;5096953;28;20024;-68
2024/03/14 05:19:58;;;;;;;4.55;1.40;;;;;;;;;;5101685;28;20024;-68
2024/03/14 05:22:24;;;;;;;1.77;1.67;;;;;;;;;;5078198;28;20063;-68
2024/03/14 05:24:51;;;;;;;1.52;1.42;;;;;;;;;;5093647;28;20126;-70
2024/03/14 05:27:17;;;;;;;1.52;1.45;;;;;;;;;;5098139;28;20047;-68
2024/03/14 05:29:43;;;;;;;2.30;1.60;;;;;;;;;;5089724;28;20036;-68
2024/03/14 05:32:27;;;;;;;2.22;1.27;;;;;;;;;;5098076;28;20103;-69
2024/03/14 05:34:54;;;;;;;2.45;1.52;;;;;;;;;;5078898;28;20456;-69
2024/03/14 05:37:21;;;;;;;5.13;1.80;;;;;;;;;;5097467;28;20044;-65
2024/03/14 05:39:48;;;;;;;3.95;1.40;;;;;;;;;;5096726;28;20449;-65
2024/03/14 05:42:18;;;;;;;1.85;1.70;;;;;;;;;;5083611;28;20063;-64
2024/03/14 05:45:05;;;;;;;1.20;1.20;;;;;;;;;;5092086;28;20024;-64
2024/03/14 05:47:32;;;;;;;1.20;1.20;;;;;;;;;;5101845;28;20043;-65
2024/03/14 05:49:58;;;;;;;3.30;1.58;;;;;;;;;;5091063;28;20081;-65
2024/03/14 05:52:25;;;;;;;1.45;1.35;;;;;;;;;;5098532;28;20297;-64
2024/03/14 05:54:51;;;;;;;3.58;1.42;;;;;;;;;;5087456;28;20365;-65
2024/03/14 05:57:17;;;;;;;2.03;1.77;;;;;;;;;;5094410;28;20055;-65
2024/03/14 05:59:44;;;;;;;2.13;1.77;;;;;;;;;;5082614;28;20024;-66
2024/03/14 06:02:10;;;;;;;1.60;1.50;;;;;;;;;;5096987;28;20027;-67
2024/03/14 06:04:37;;;;;;;5.85;1.77;;;;;;;;;;5075015;28;20036;-67
2024/03/14 06:07:03;;;;;;;3.28;1.98;;;;;;;;;;5104189;28;20181;-69
2024/03/14 06:09:39;;;;;;;1.88;1.77;;;;;;;;;;5093908;28;20028;-68
2024/03/14 06:12:05;;;;;;;1.48;1.38;;;;;;;;;;5087962;28;20572;-68
2024/03/14 06:14:32;;;;;;;2.67;1.42;;;;;;;;;;5098960;28;20483;-68
2024/03/14 06:16:59;;;;;;;1.80;1.70;;;;;;;;;;5094278;28;20027;-69
2024/03/14 06:19:25;;;;;;;2.45;1.55;;;;;;;;;;5100572;28;20027;-69
2024/03/14 06:21:51;;;;;;;3.45;2.08;;;;;;;;;;5102382;28;20389;-68
2024/03/14 06:24:17;;;;;;;2.60;1.60;;;;;;;;;;5096933;27;20699;-69
2024/03/14 06:26:45;;;;;;;7.18;2.17;;;;;;;;;;5082364;28;20468;-69
2024/03/14 06:29:11;;;;;;;2.17;1.50;;;;;;;;;;5095188;28;20031;-70
2024/03/14 06:31:38;;;;;;;1.40;1.40;;;;;;;;;;5086905;28;20028;-70
2024/03/14 06:34:05;;;;;;;3.70;2.17;;;;;;;;;;5094914;28;20369;-69
2024/03/14 06:36:31;;;;;;;2.97;2.00;;;;;;;;;;5101758;28;20024;-68
2024/03/14 06:38:57;;;;;;;3.08;1.75;;;;;;;;;;5107236;27;20030;-71
2024/03/14 06:41:24;;;;;;;5.20;1.90;;;;;;;;;;5093731;28;20219;-70
2024/03/14 06:43:51;;;;;;;3.17;1.88;;;;;;;;;;5096270;28;20124;-70
2024/03/14 06:46:20;;;;;;;5.53;2.25;;;;;;;;;;5099915;28;20030;-71
2024/03/14 06:48:46;;;;;;;5.88;1.70;;;;;;;;;;5100431;28;20528;-71
2024/03/14 06:51:12;;;;;;;2.17;1.98;;;;;;;;;;5104375;28;20028;-71
2024/03/14 06:53:38;;;;;;;3.28;1.73;;;;;;;;;;5101748;28;20542;-71
2024/03/14 06:56:08;;;;;;;3.53;1.90;;;;;;;;;;5109300;28;20477;-70
2024/03/14 06:58:35;;;;;;;5.90;2.10;;;;;;;;;;5083961;28;20542;-70
2024/03/14 07:01:01;;;;;;;11.95;2.25;;;;;;;;;;5090862;28;20036;-69
2024/03/14 07:03:28;;;;;;;2.03;1.67;;;;;;;;;;5109823;28;20396;-70
2024/03/14 07:05:57;;;;;;;7.68;1.92;;;;;;;;;;5100956;28;20127;-70
2024/03/14 07:08:26;;;;;;;6.70;2.15;;;;;;;;;;5096098;28;20022;-70
2024/03/14 07:10:53;;;;;;;4.47;1.63;;;;;;;;;;5100425;28;20026;-72
2024/03/14 07:13:19;;;;;;;3.25;1.88;;;;;;;;;;5095717;28;20405;-71
2024/03/14 07:15:47;;;;;;;4.13;2.10;;;;;;;;;;5078688;28;20032;-71
2024/03/14 07:18:13;;;;;;;6.53;2.42;;;;;;;;;;5081781;28;20407;-70
2024/03/14 07:20:43;;;;;;;3.47;1.92;;;;;;;;;;5099226;28;20677;-71
2024/03/14 07:23:13;;;;;;;4.38;2.50;;;;;;;;;;5092388;27;20024;-72
2024/03/14 07:25:41;;;;;;;10.32;2.60;;;;;;;;;;5083444;28;20039;-72
2024/03/14 07:28:09;;;;;;;2.83;2.58;;;;;;;;;;5096268;28;20059;-72
2024/03/14 07:30:35;;;;;;;5.60;2.63;;;;;;;;;;5085545;28;20505;-71
2024/03/14 07:33:01;;;;;;;4.60;2.65;;;;;;;;;;5094290;28;20049;-72
2024/03/14 07:35:27;;;;;;;4.38;2.42;;;;;;;;;;5100977;27;20107;-72
2024/03/14 07:37:54;;;;;;;8.10;2.08;;;;;;;;;;5101721;28;20051;-71
2024/03/14 07:40:26;;;;;;;14.60;3.78;;;;;;;;;;5098005;28;20357;-72
2024/03/14 07:42:52;;;;;;;3.40;2.10;;;;;;;;;;5096295;28;20120;-71
2024/03/14 07:45:18;;;;;;;8.73;2.38;;;;;;;;;;5093293;27;20485;-72
2024/03/14 07:47:45;;;;;;;2.85;2.05;;;;;;;;;;5096017;28;20020;-71
2024/03/14 07:50:11;;;;;;;6.40;2.75;;;;;;;;;;5103915;28;20049;-72
2024/03/14 07:52:39;;;;;;;4.18;1.73;;;;;;;;;;5087726;28;20020;-72
2024/03/14 07:55:07;;;;;;;5.85;1.90;;;;;;;;;;5087856;28;20040;-71
2024/03/14 07:57:35;;;;;;;5.22;2.13;;;;;;;;;;5102037;28;20023;-72
2024/03/14 08:00:04;;;;;;;2.70;2.30;;;;;;;;;;5091067;28;20044;-72
2024/03/14 08:02:34;;;;;;;4.47;2.22;;;;;;;;;;5089337;27;20054;-72
2024/03/14 08:05:02;;;;;;;10.13;2.33;;;;;;;;;;5079316;28;20047;-72
2024/03/14 08:07:32;;;;;;;7.03;2.28;;;;;;;;;;5083836;27;20073;-70
2024/03/14 08:09:58;;;;;;;1.77;1.63;;;;;;;;;;5085188;28;20667;-71
2024/03/14 08:12:31;;;;;;;3.83;1.95;;;;;;;;;;5097670;27;20024;-72
2024/03/14 08:15:16;;;;;;;3.10;1.65;;;;;;;;;;5090579;27;20146;-71
2024/03/14 08:17:44;;;;;;;1.70;1.58;;;;;;;;;;5098434;28;20383;-71
2024/03/14 08:20:24;;;;;;;2.22;1.65;;;;;;;;;;5094796;28;20127;-71
2024/03/14 08:22:52;;;;;;;6.57;2.03;;;;;;;;;;5082822;28;20110;-70
2024/03/14 08:25:19;;;;;;;2.05;1.30;;;;;;;;;;5071099;28;20027;-71
2024/03/14 08:27:49;;;;;;;3.80;2.00;;;;;;;;;;5080267;27;20031;-69
2024/03/14 08:30:15;;;;;;;3.15;1.80;;;;;;;;;;5069626;28;20023;-70
2024/03/14 08:32:44;;;;;;;3.35;2.17;;;;;;;;;;5102827;28;20016;-70
2024/03/14 08:35:17;;;;;;;1.80;1.42;;;;;;;;;;5104913;28;20027;-69
2024/03/14 08:37:46;;;;;;;2.00;1.90;;;;;;;;;;5109883;28;20102;-70
2024/03/14 08:40:13;;;;;;;1.90;1.65;;;;;;;;;;5107760;27;20040;-72
2024/03/14 08:42:41;;;;;;;3.72;1.90;;;;;;;;;;5089913;28;20035;-70
2024/03/14 08:45:09;;;;;;;1.27;1.27;;;;;;;;;;5086859;28;20044;-71
2024/03/14 08:47:38;;;;;;;1.50;1.40;;;;;;;;;;5105442;28;20020;-68
2024/03/14 08:50:05;;;;;;;9.07;1.80;;;;;;;;;;5107211;28;20340;-66
2024/03/14 08:52:38;;;;;;;4.22;1.75;;;;;;;;;;5090999;28;20032;-69
2024/03/14 08:57:53;;;;;;;4.10;2.37;;;;;;;;;;5090493;28;20639;-69
2024/03/14 09:00:25;;;;;;;3.88;1.73;;;;;;;;;;5107428;27;20518;-72
2024/03/14 09:02:52;;;;;;;7.95;1.90;;;;;;;;;;5085412;28;20074;-71
2024/03/14 09:05:18;;;;;;;2.10;1.50;;;;;;;;;;5105487;27;20588;-68
2024/03/14 09:07:48;;;;;;;1.50;1.40;;;;;;;;;;5099455;28;20506;-69
2024/03/14 09:10:23;;;;;;;1.73;1.40;;;;;;;;;;5106015;28;20112;-70
2024/03/14 09:12:50;;;;;;;5.35;1.83;;;;;;;;;;5089521;28;20051;-70
2024/03/14 09:15:18;;;;;;;1.17;1.17;;;;;;;;;;5086315;28;20091;-70
2024/03/14 09:17:55;;;;;;;2.00;1.33;;;;;;;;;;5104018;28;20053;-69
2024/03/14 09:20:33;;;;;;;;;;;;;;;;;;;;;
2024/03/14 09:22:59;;;;;;;1.20;1.20;;;;;;;;;;5108032;28;20042;-71
2024/03/14 09:25:28;;;;;;;1.40;1.30;;;;;;;;;;5088884;28;20028;-70
2024/03/14 09:27:55;;;;;;;1.20;1.20;;;;;;;;;;5105581;28;20028;-70
2024/03/14 09:30:22;;;;;;;2.00;1.23;;;;;;;;;;5087160;28;20030;-72
2024/03/14 09:32:48;;;;;;;1.40;1.35;;;;;;;;;;5101606;28;20346;-71
2024/03/14 09:35:25;;;;;;;1.00;1.00;;;;;;;;;;5098357;28;20405;-75
2024/03/14 09:37:54;;;;;;;2.05;1.40;;;;;;;;;;5087727;28;20036;-71
2024/03/14 09:40:21;;;;;;;1.20;1.20;;;;;;;;;;5106458;28;20034;-71
2024/03/14 09:42:56;;;;;;;3.50;1.20;;;;;;;;;;5110239;28;20534;-72
2024/03/14 09:45:26;;;;;;;1.15;1.00;;;;;;;;;;5082128;28;20032;-72
2024/03/14 09:47:55;;;;;;;1.00;1.00;;;;;;;;;;5102972;28;20028;-72
2024/03/14 09:50:23;;;;;;;1.10;1.10;;;;;;;;;;5101949;28;20179;-71
2024/03/14 09:52:50;;;;;;;1.02;1.02;;;;;;;;;;5102602;28;20076;-73
2024/03/14 09:55:17;;;;;;;3.20;1.52;;;;;;;;;;5084916;28;20058;-72
2024/03/14 09:57:45;;;;;;;1.13;1.05;;;;;;;;;;5079511;28;20024;-72
2024/03/14 10:00:13;;;;;;;0.90;0.90;;;;;;;;;;5098399;28;20036;-72
2024/03/14 10:02:41;;;;;;;0.90;0.90;;;;;;;;;;5096980;28;20119;-71
2024/03/14 10:05:11;;;;;;;1.10;1.10;;;;;;;;;;5091185;28;20162;-72
2024/03/14 10:07:43;;;;;;;0.90;0.90;;;;;;;;;;5095218;28;20106;-71
2024/03/14 10:10:10;;;;;;;1.38;1.27;;;;;;;;;;5096379;28;20027;-75
2024/03/14 10:12:36;;;;;;;2.53;1.40;;;;;;;;;;5080706;28;20020;-72
2024/03/14 10:15:12;;;;;;;1.98;1.20;;;;;;;;;;5079122;28;20035;-71
2024/03/14 10:17:40;;;;;;;1.27;1.27;;;;;;;;;;5094607;28;20412;-73
2024/03/14 10:20:14;;;;;;;1.40;1.30;;;;;;;;;;5105708;28;20556;-69
2024/03/14 10:22:46;;;;;;;3.45;1.20;;;;;;;;;;5084255;28;20063;-72
2024/03/14 10:25:23;;;;;;;1.15;1.15;;;;;;;;;;5100047;28;20541;-75
2024/03/14 10:27:54;;;;;;;1.10;1.10;;;;;;;;;;5080954;28;20028;-77
2024/03/14 10:30:23;;;;;;;1.20;1.20;;;;;;;;;;5089273;28;20492;-72
2024/03/14 10:32:49;;;;;;;1.27;1.27;;;;;;;;;;5102212;28;20420;-72
2024/03/14 10:35:19;;;;;;;1.20;1.20;;;;;;;;;;5101472;28;20396;-72
2024/03/14 10:37:47;;;;;;;1.30;1.30;;;;;;;;;;5103611;28;20040;-73
2024/03/14 10:40:24;;;;;;;1.10;1.10;;;;;;;;;;5099628;28;20527;-78
2024/03/14 10:42:51;;;;;;;1.00;1.00;;;;;;;;;;5100515;28;20091;-68
2024/03/14 10:45:17;;;;;;;1.00;1.00;;;;;;;;;;5082097;28;20043;-70
2024/03/14 10:47:44;;;;;;;1.00;1.00;;;;;;;;;;5102459;28;20606;-74
2024/03/14 10:50:16;;;;;;;1.20;1.20;;;;;;;;;;5064978;28;20450;-75
2024/03/14 10:52:49;;;;;;;1.00;1.00;;;;;;;;;;5099118;27;20030;-74
2024/03/14 10:55:21;;;;;;;1.15;1.15;;;;;;;;;;5104826;27;20027;-72
2024/03/14 10:57:48;;;;;;;1.00;1.00;;;;;;;;;;5106429;28;20096;-70
2024/03/14 11:00:19;;;;;;;1.10;1.10;;;;;;;;;;5089843;28;20036;-75
2024/03/14 11:02:50;;;;;;;1.10;1.10;;;;;;;;;;5097187;28;20024;-75
2024/03/14 11:05:23;;;;;;;1.40;1.30;;;;;;;;;;5108514;27;20027;-66
2024/03/14 11:07:53;;;;;;;1.08;1.08;;;;;;;;;;5089708;28;20080;-70
2024/03/14 11:10:23;;;;;;;1.00;1.00;;;;;;;;;;5101766;28;20024;-74
2024/03/14 11:13:00;;;;;;;1.00;1.00;;;;;;;;;;5091088;28;20035;-77
2024/03/14 11:15:30;;;;;;;1.25;1.25;;;;;;;;;;5118233;28;20488;-72
2024/03/14 11:18:00;;;;;;;1.45;1.40;;;;;;;;;;5093388;28;20032;-69
2024/03/14 11:20:29;;;;;;;1.10;1.10;;;;;;;;;;5085828;28;20092;-73
2024/03/14 11:22:57;;;;;;;2.50;1.25;;;;;;;;;;5085610;28;20515;-73
2024/03/14 11:25:26;;;;;;;1.27;1.27;;;;;;;;;;5083477;28;20429;-73
2024/03/14 11:27:56;;;;;;;1.75;1.65;;;;;;;;;;5105663;27;20038;-76
2024/03/14 11:30:22;;;;;;;1.02;1.00;;;;;;;;;;5111209;27;20011;-72
2024/03/14 11:32:49;;;;;;;1.40;1.30;;;;;;;;;;5105120;28;20397;-73
2024/03/14 11:35:36;;;;;;;2.28;1.70;;;;;;;;;;5069804;28;20028;-74
2024/03/14 11:38:23;;;;;;;1.75;1.45;;;;;;;;;;5091305;28;20104;-77
2024/03/14 11:40:52;;;;;;;1.30;1.27;;;;;;;;;;5114029;27;20063;-75
2024/03/14 11:43:22;;;;;;;1.13;1.13;;;;;;;;;;5110129;28;20023;-70
2024/03/14 11:45:57;;;;;;;1.70;1.58;;;;;;;;;;5105879;27;20618;-68
2024/03/14 11:48:29;;;;;;;1.20;1.20;;;;;;;;;;5104324;28;20020;-72
2024/03/14 11:50:58;;;;;;;1.17;1.08;;;;;;;;;;5081256;28;20056;-73
2024/03/14 11:53:31;;;;;;;0.90;0.90;;;;;;;;;;5105214;27;20046;-71
2024/03/14 11:56:04;;;;;;;1.23;1.23;;;;;;;;;;5105238;27;20448;-69
2024/03/14 11:58:30;;;;;;;1.20;1.20;;;;;;;;;;5084999;28;20843;-73
2024/03/14 12:00:57;;;;;;;2.13;1.35;;;;;;;;;;5103881;27;20016;-72
2024/03/14 12:03:24;;;;;;;1.02;1.02;;;;;;;;;;5083473;28;20040;-72
2024/03/14 12:05:58;;;;;;;1.40;1.20;;;;;;;;;;5085848;28;20030;-71
2024/03/14 12:08:27;;;;;;;1.13;1.13;;;;;;;;;;5087855;28;20067;-71
2024/03/14 12:10:54;;;;;;;3.22;1.20;;;;;;;;;;5106314;27;20023;-71
2024/03/14 12:13:26;;;;;;;1.25;1.23;;;;;;;;;;5104193;27;20031;-70
2024/03/14 12:16:02;;;;;;;1.35;1.23;;;;;;;;;;5087776;28;20499;-73
2024/03/14 12:18:29;;;;;;;1.02;1.02;;;;;;;;;;5105283;27;21018;-71
2024/03/14 12:20:56;;;;;;;1.48;1.38;;;;;;;;;;5089836;28;20035;-72
2024/03/14 12:23:22;;;;;;;1.10;1.10;;;;;;;;;;5107678;27;20041;-73
2024/03/14 12:25:55;;;;;;;1.52;1.42;;;;;;;;;;5089926;28;20042;-70
2024/03/14 12:28:23;;;;;;;1.20;1.20;;;;;;;;;;5106050;27;20019;-74
2024/03/14 12:31:11;;;;;;;2.00;1.10;;;;;;;;;;5106279;28;20079;-78
2024/03/14 12:33:39;;;;;;;4.15;1.38;;;;;;;;;;5083270;28;20028;-74
2024/03/14 12:36:08;;;;;;;1.13;1.13;;;;;;;;;;5108486;28;20024;-72
2024/03/14 12:38:35;;;;;;;1.08;1.08;;;;;;;;;;5103807;28;20589;-71
2024/03/14 12:41:02;;;;;;;1.45;1.35;;;;;;;;;;5106873;27;20558;-75
2024/03/14 12:43:30;;;;;;;1.30;1.20;;;;;;;;;;5107959;27;20034;-75
2024/03/14 12:45:57;;;;;;;1.30;1.30;;;;;;;;;;5083644;28;20084;-73
2024/03/14 12:48:23;;;;;;;2.28;1.38;;;;;;;;;;5082577;28;20480;-72
2024/03/14 12:50:53;;;;;;;1.00;1.00;;;;;;;;;;5101112;27;20496;-71
2024/03/14 12:53:22;;;;;;;0.90;0.90;;;;;;;;;;5086568;28;20062;-72
2024/03/14 12:55:52;;;;;;;1.85;1.40;;;;;;;;;;5102548;28;20095;-72
2024/03/14 12:58:25;;;;;;;1.50;1.40;;;;;;;;;;5104639;28;20515;-72
2024/03/14 13:00:58;;;;;;;1.27;1.27;;;;;;;;;;5088484;28;20027;-72
2024/03/14 13:03:24;;;;;;;1.52;1.05;;;;;;;;;;5087560;28;20027;-72
2024/03/14 13:06:00;;;;;;;1.42;1.27;;;;;;;;;;5090254;28;20110;-72
2024/03/14 13:08:26;;;;;;;1.48;1.38;;;;;;;;;;5091899;28;20034;-72
2024/03/14 13:11:15;;;;;;;1.42;1.33;;;;;;;;;;5091224;28;20499;-72
2024/03/14 13:13:42;;;;;;;1.25;1.15;;;;;;;;;;5084946;28;20023;-73
2024/03/14 13:16:17;;;;;;;1.13;1.00;;;;;;;;;;5110734;27;20020;-71
2024/03/14 13:18:43;;;;;;;2.60;1.30;;;;;;;;;;5090007;28;20028;-72
2024/03/14 13:21:11;;;;;;;1.08;1.08;;;;;;;;;;5107420;28;20027;-72
2024/03/14 13:23:41;;;;;;;1.38;1.00;;;;;;;;;;5108338;28;20034;-72
2024/03/14 13:26:13;;;;;;;1.77;1.40;;;;;;;;;;5086405;28;20035;-72
2024/03/14 13:28:46;;;;;;;3.00;1.52;;;;;;;;;;5107921;28;20031;-72
2024/03/14 13:31:17;;;;;;;2.95;1.55;;;;;;;;;;5106943;28;20531;-71
2024/03/14 13:33:44;;;;;;;1.88;1.33;;;;;;;;;;5096393;28;20020;-71
2024/03/14 13:36:13;;;;;;;2.42;1.42;;;;;;;;;;5087623;28;20032;-71
2024/03/14 13:38:40;;;;;;;1.45;1.33;;;;;;;;;;5098887;28;20039;-71
2024/03/14 13:41:10;;;;;;;2.83;1.52;;;;;;;;;;5105206;27;20065;-72
2024/03/14 13:43:37;;;;;;;1.95;1.45;;;;;;;;;;5085309;28;20031;-72
2024/03/14 13:46:05;;;;;;;2.10;1.67;;;;;;;;;;5088674;28;20031;-72
2024/03/14 13:48:34;;;;;;;1.65;1.55;;;;;;;;;;5085134;28;20032;-73
2024/03/14 13:51:07;;;;;;;1.52;1.42;;;;;;;;;;5089858;28;20050;-72
2024/03/14 13:53:33;;;;;;;1.30;1.30;;;;;;;;;;5098629;28;20465;-74
2024/03/14 13:56:00;;;;;;;2.22;1.45;;;;;;;;;;5103807;28;20536;-72
2024/03/14 13:58:27;;;;;;;2.40;1.35;;;;;;;;;;5103081;28;20038;-72
2024/03/14 14:00:58;;;;;;;3.05;1.45;;;;;;;;;;5101362;28;20023;-72
2024/03/14 14:03:24;;;;;;;2.47;1.73;;;;;;;;;;5078654;28;20028;-72
2024/03/14 14:05:52;;;;;;;1.77;1.67;;;;;;;;;;5087869;28;20488;-72
2024/03/14 14:08:22;;;;;;;1.65;1.65;;;;;;;;;;5099992;28;20521;-72
2024/03/14 14:10:53;;;;;;;1.42;1.33;;;;;;;;;;5109102;28;20028;-72
2024/03/14 14:13:25;;;;;;;5.25;1.75;;;;;;;;;;5098984;28;20519;-72
2024/03/14 14:15:52;;;;;;;2.20;1.85;;;;;;;;;;5080961;28;20058;-66
2024/03/14 14:18:18;;;;;;;1.42;1.33;;;;;;;;;;5085906;28;20024;-70
2024/03/14 14:20:44;;;;;;;2.88;1.45;;;;;;;;;;5103372;28;20026;-72
2024/03/14 14:23:15;;;;;;;3.58;1.30;;;;;;;;;;5084686;28;20049;-69
2024/03/14 14:25:44;;;;;;;2.80;1.27;;;;;;;;;;5083815;28;20116;-73
2024/03/14 14:28:10;;;;;;;1.40;1.30;;;;;;;;;;5106635;28;20019;-67
2024/03/14 14:30:38;;;;;;;1.60;1.50;;;;;;;;;;5089141;28;20478;-70
2024/03/14 14:33:06;;;;;;;1.60;1.50;;;;;;;;;;5108759;28;20427;-71
2024/03/14 14:35:32;;;;;;;3.15;1.65;;;;;;;;;;5093364;28;20035;-71
2024/03/14 14:37:59;;;;;;;2.45;1.23;;;;;;;;;;5110227;28;20055;-72
2024/03/14 14:40:25;;;;;;;2.03;1.40;;;;;;;;;;5109000;27;20032;-71
2024/03/14 14:42:53;;;;;;;1.40;1.30;;;;;;;;;;5097315;28;20032;-71
2024/03/14 14:45:20;;;;;;;1.52;1.40;;;;;;;;;;5090289;28;20035;-67
2024/03/14 14:47:46;;;;;;;2.67;1.63;;;;;;;;;;5109345;27;20030;-69
2024/03/14 14:50:12;;;;;;;3.40;1.38;;;;;;;;;;5088114;28;20055;-69
2024/03/14 14:52:42;;;;;;;1.50;1.40;;;;;;;;;;5108627;27;20023;-69
2024/03/14 14:55:12;;;;;;;1.35;1.25;;;;;;;;;;5105141;28;20020;-71